Time;durP1;ratioP1;P1;durP2;ratioP2;P2;SDS_P1;SDS_P2;PMS_P1;PMS_P2;Temp;Humidity;BMP_temperature;BMP_pressure;BME280_temperature;BME280_humidity;BME280_pressure;Samples;Min_cycle;Max_cycle;Signal;HPM_P1;HPM_P2
2022/01/16 00:04:11;;;;;;;;;;;1.50;99.90;;;;;;5075950;28;20347;-41
2022/01/16 00:06:42;;;;;;;;;;;1.40;99.90;;;;;;5075298;28;19955;-41
2022/01/16 00:09:07;;;;;;;;;;;1.50;99.90;;;;;;5075435;28;20386;-41
2022/01/16 00:11:35;;;;;;;;;;;1.60;99.90;;;;;;5075695;28;19909;-42
2022/01/16 00:14:02;;;;;;;;;;;1.60;99.90;;;;;;5075519;28;19932;-43
2022/01/16 00:16:27;;;;;;;;;;;1.70;99.90;;;;;;5075735;28;20267;-41
2022/01/16 00:18:53;;;;;;;;;;;1.70;99.90;;;;;;5075648;28;19961;-42
2022/01/16 00:21:23;;;;;;;;;;;1.80;99.90;;;;;;5075515;28;19909;-41
2022/01/16 00:23:50;;;;;;;;;;;1.80;99.90;;;;;;5075082;28;20396;-41
2022/01/16 00:26:16;;;;;;;;;;;1.80;99.90;;;;;;5075482;28;20380;-43
2022/01/16 00:28:42;;;;;;;;;;;1.90;99.90;;;;;;5075436;28;20316;-42
2022/01/16 00:31:08;;;;;;;;;;;1.70;99.90;;;;;;5075461;28;19908;-41
2022/01/16 00:33:33;;;;;;;;;;;1.80;99.90;;;;;;5075385;28;19908;-43
2022/01/16 00:35:59;;;;;;;;;;;1.60;99.90;;;;;;5075048;28;19962;-43
2022/01/16 00:38:25;;;;;;;;;;;1.60;99.90;;;;;;5075316;28;19947;-43
2022/01/16 00:40:50;;;;;;;;;;;1.60;99.90;;;;;;5075224;28;19948;-41
2022/01/16 00:43:16;;;;;;;;;;;1.80;99.90;;;;;;5075191;28;19919;-42
2022/01/16 00:45:41;;;;;;;;;;;1.60;99.90;;;;;;5074825;28;19908;-42
2022/01/16 00:48:07;;;;;;;;;;;1.40;99.90;;;;;;5074576;28;20387;-42
2022/01/16 00:50:33;;;;;;;;;;;1.60;99.90;;;;;;5074737;28;19908;-43
2022/01/16 00:52:59;;;;;;;;;;;1.70;99.90;;;;;;5074589;28;19909;-42
2022/01/16 00:55:24;;;;;;;;;;;1.60;99.90;;;;;;5074568;28;20401;-42
2022/01/16 00:57:50;;;;;;;;;;;1.70;99.90;;;;;;5056758;28;20302;-42
2022/01/16 01:00:16;;;;;;;;;;;1.80;99.90;;;;;;5074874;28;20305;-44
2022/01/16 01:02:41;;;;;;;;;;;1.80;99.90;;;;;;5075079;28;20365;-42
2022/01/16 01:05:08;;;;;;;;;;;1.90;99.90;;;;;;5074686;28;19977;-42
2022/01/16 01:07:34;;;;;;;;;;;1.80;99.90;;;;;;5073401;28;19909;-42
2022/01/16 01:09:59;;;;;;;;;;;1.40;99.90;;;;;;5074475;28;19948;-42
2022/01/16 01:12:43;;;;;;;;;;;1.10;99.90;;;;;;5074245;28;19970;-42
2022/01/16 01:15:10;;;;;;;;;;;1.20;99.90;;;;;;5074583;28;20353;-43
2022/01/16 01:17:44;;;;;;;;;;;1.30;99.90;;;;;;5074784;28;19954;-43
2022/01/16 01:20:10;;;;;;;;;;;1.40;99.90;;;;;;5074195;28;20355;-41
2022/01/16 01:22:36;;;;;;;;;;;1.30;99.90;;;;;;5074202;28;20239;-42
2022/01/16 01:25:01;;;;;;;;;;;1.00;99.90;;;;;;5074510;28;19915;-42
2022/01/16 01:27:31;;;;;;;;;;;1.00;99.90;;;;;;5056522;28;19909;-42
2022/01/16 01:30:05;;;;;;;;;;;1.20;99.90;;;;;;5074308;28;19924;-42
2022/01/16 01:32:32;;;;;;;;;;;1.30;99.90;;;;;;5074222;28;20042;-41
2022/01/16 01:34:57;;;;;;;;;;;1.20;99.90;;;;;;5073754;28;20315;-42
2022/01/16 01:37:23;;;;;;;;;;;1.30;99.90;;;;;;5073963;28;19955;-44
2022/01/16 01:39:48;;;;;;;;;;;1.30;99.90;;;;;;5073587;28;20278;-41
2022/01/16 01:42:15;;;;;;;;;;;1.40;99.90;;;;;;5073837;28;19908;-42
2022/01/16 01:52:56;;;;;;;;;;;1.50;99.90;;;;;;5073722;28;19919;-42
2022/01/16 01:55:22;;;;;;;;;;;1.50;99.90;;;;;;5073936;28;19909;-42
2022/01/16 01:57:47;;;;;;;;;;;1.50;99.90;;;;;;5073937;28;19954;-42
2022/01/16 02:00:19;;;;;;;;;;;1.70;99.90;;;;;;5073683;28;20244;-42
2022/01/16 02:03:42;;;;;;;;;;;1.70;99.90;;;;;;5073600;28;20366;-45
2022/01/16 02:05:31;;;;;;;;;;;1.70;99.90;;;;;;5063056;28;19912;-43
2022/01/16 02:07:57;;;;;;;;;;;1.70;99.90;;;;;;5055792;28;19915;-42
2022/01/16 02:10:23;;;;;;;;;;;1.70;99.90;;;;;;5073590;28;19915;-42
2022/01/16 02:12:55;;;;;;;;;;;1.60;99.90;;;;;;5073842;28;19961;-42
2022/01/16 02:31:38;;;;;;;;;;;1.10;99.90;;;;;;5077867;28;19908;-44
2022/01/16 02:36:51;;;;;;;;;;;1.20;99.90;;;;;;5077845;28;19916;-42
2022/01/16 02:39:17;;;;;;;;;;;1.30;99.90;;;;;;5077606;28;19919;-42
2022/01/16 02:41:43;;;;;;;;;;;1.20;99.90;;;;;;5077625;28;20236;-41
2022/01/16 02:45:01;;;;;;;;;;;1.00;99.90;;;;;;5077329;28;19909;-42
2022/01/16 02:46:58;;;;;;;;;;;1.00;99.90;;;;;;5069154;28;19909;-42
2022/01/16 02:49:25;;;;;;;;;;;1.10;99.90;;;;;;5076983;28;19920;-42
2022/01/16 02:51:52;;;;;;;;;;;1.10;99.90;;;;;;5077302;28;19909;-41
2022/01/16 02:54:18;;;;;;;;;;;1.30;99.90;;;;;;5077300;28;20326;-42
2022/01/16 02:56:45;;;;;;;;;;;1.40;99.90;;;;;;5077326;28;19909;-41
2022/01/16 02:59:11;;;;;;;;;;;1.50;99.90;;;;;;5077585;28;19916;-42
2022/01/16 03:01:37;;;;;;;;;;;1.50;99.90;;;;;;5077470;28;19909;-42
2022/01/16 03:04:02;;;;;;;;;;;1.30;99.90;;;;;;5077479;28;19908;-42
2022/01/16 03:06:28;;;;;;;;;;;1.20;99.90;;;;;;5077063;28;19915;-44
2022/01/16 03:08:53;;;;;;;;;;;1.20;99.90;;;;;;5077029;28;20019;-42
2022/01/16 03:11:34;;;;;;;;;;;1.20;99.90;;;;;;5077003;28;20366;-42
2022/01/16 03:14:01;;;;;;;;;;;1.20;99.90;;;;;;5076759;28;20374;-41
2022/01/16 03:16:26;;;;;;;;;;;1.10;99.90;;;;;;5076905;28;19913;-42
2022/01/16 03:21:54;;;;;;;;;;;0.80;99.90;;;;;;5076726;28;19919;-42
2022/01/16 03:24:24;;;;;;;;;;;0.70;99.90;;;;;;5077183;28;19973;-42
2022/01/16 03:27:00;;;;;;;;;;;0.90;99.90;;;;;;5076752;28;19916;-42
2022/01/16 03:29:26;;;;;;;;;;;1.00;99.90;;;;;;5076649;28;19966;-42
2022/01/16 03:31:52;;;;;;;;;;;1.10;99.90;;;;;;5075699;28;20065;-41
2022/01/16 03:34:18;;;;;;;;;;;1.10;99.90;;;;;;5076686;28;20369;-42
2022/01/16 03:36:44;;;;;;;;;;;1.20;99.90;;;;;;5076599;28;19916;-41
2022/01/16 03:39:09;;;;;;;;;;;1.20;99.90;;;;;;5076361;28;19915;-42
2022/01/16 03:41:35;;;;;;;;;;;1.10;99.90;;;;;;5076288;28;19912;-42
2022/01/16 03:44:02;;;;;;;;;;;1.00;99.90;;;;;;5076465;28;19908;-41
2022/01/16 03:46:34;;;;;;;;;;;0.90;99.90;;;;;;5076445;28;19963;-42
2022/01/16 03:49:14;;;;;;;;;;;1.00;99.90;;;;;;5076263;28;19986;-42
2022/01/16 03:51:40;;;;;;;;;;;1.00;99.90;;;;;;5076262;28;20386;-42
2022/01/16 03:54:06;;;;;;;;;;;0.90;99.90;;;;;;5076285;28;19916;-41
2022/01/16 03:56:32;;;;;;;;;;;0.70;99.90;;;;;;5076279;28;19908;-42
2022/01/16 03:58:58;;;;;;;;;;;0.70;99.90;;;;;;5076127;28;20289;-42
2022/01/16 04:01:24;;;;;;;;;;;0.80;99.90;;;;;;5076136;28;19912;-42
2022/01/16 04:03:50;;;;;;;;;;;0.70;99.90;;;;;;5076152;28;19908;-42
2022/01/16 04:06:15;;;;;;;;;;;0.90;99.90;;;;;;5058190;28;19985;-42
2022/01/16 04:08:41;;;;;;;;;;;1.00;99.90;;;;;;5075699;28;20358;-42
2022/01/16 04:11:08;;;;;;;;;;;1.10;99.90;;;;;;5075944;28;19916;-43
2022/01/16 04:13:33;;;;;;;;;;;1.20;99.90;;;;;;5075829;28;19908;-41
2022/01/16 04:15:59;;;;;;;;;;;1.10;99.90;;;;;;5075857;28;19909;-42
2022/01/16 04:18:24;;;;;;;;;;;1.00;99.90;;;;;;5075538;28;19912;-42
2022/01/16 04:20:50;;;;;;;;;;;1.00;99.90;;;;;;5075469;28;19908;-41
2022/01/16 04:23:15;;;;;;;;;;;1.00;99.90;;;;;;5075692;28;19924;-42
2022/01/16 04:25:41;;;;;;;;;;;1.00;99.90;;;;;;5075653;28;20007;-43
2022/01/16 04:28:06;;;;;;;;;;;1.00;99.90;;;;;;5075279;28;20382;-41
2022/01/16 04:30:32;;;;;;;;;;;1.00;99.90;;;;;;5075855;28;19931;-42
2022/01/16 04:32:58;;;;;;;;;;;1.00;99.90;;;;;;5075476;28;20347;-43
2022/01/16 04:35:23;;;;;;;;;;;0.90;99.90;;;;;;5075108;28;20026;-43
2022/01/16 04:37:49;;;;;;;;;;;0.90;99.90;;;;;;5075265;28;20015;-43
2022/01/16 04:40:15;;;;;;;;;;;0.70;99.90;;;;;;5075084;28;19934;-42
2022/01/16 04:45:25;;;;;;;;;;;0.70;99.90;;;;;;5075373;28;19955;-42
2022/01/16 04:47:51;;;;;;;;;;;0.60;99.90;;;;;;5075120;28;19912;-42
2022/01/16 04:50:17;;;;;;;;;;;0.80;99.90;;;;;;5074814;28;19908;-42
2022/01/16 04:52:43;;;;;;;;;;;0.60;99.90;;;;;;5074976;28;20054;-42
2022/01/16 04:55:10;;;;;;;;;;;0.60;99.90;;;;;;5075098;28;19908;-42
2022/01/16 04:57:35;;;;;;;;;;;0.60;99.90;;;;;;5074669;28;19932;-42
2022/01/16 05:00:03;;;;;;;;;;;0.60;99.90;;;;;;5074923;28;20003;-43
2022/01/16 05:02:28;;;;;;;;;;;0.50;99.90;;;;;;5074932;28;19909;-43
2022/01/16 05:04:54;;;;;;;;;;;0.60;99.90;;;;;;5074621;28;20321;-42
2022/01/16 05:07:19;;;;;;;;;;;0.60;99.90;;;;;;5075109;28;19908;-42
2022/01/16 05:09:45;;;;;;;;;;;0.80;99.90;;;;;;5074703;28;20169;-41
2022/01/16 05:12:22;;;;;;;;;;;0.80;99.90;;;;;;5074458;28;19955;-42
2022/01/16 05:17:32;;;;;;;;;;;0.40;99.90;;;;;;5074703;28;19915;-42
2022/01/16 05:19:57;;;;;;;;;;;0.50;99.90;;;;;;5074273;28;19908;-42
2022/01/16 05:22:23;;;;;;;;;;;0.40;99.90;;;;;;5074262;28;20267;-42
2022/01/16 05:24:48;;;;;;;;;;;0.40;99.90;;;;;;5074269;28;19912;-42
2022/01/16 05:27:14;;;;;;;;;;;0.60;99.90;;;;;;5074095;28;19909;-42
2022/01/16 05:29:39;;;;;;;;;;;0.50;99.90;;;;;;5074146;28;19923;-42
2022/01/16 05:32:05;;;;;;;;;;;0.60;99.90;;;;;;5074420;28;19931;-42
2022/01/16 05:34:30;;;;;;;;;;;0.40;99.90;;;;;;5074298;28;20272;-43
2022/01/16 05:36:56;;;;;;;;;;;0.60;99.90;;;;;;5074318;28;19930;-43
2022/01/16 05:39:22;;;;;;;;;;;0.60;99.90;;;;;;5074570;28;20250;-42
2022/01/16 05:41:47;;;;;;;;;;;0.70;99.90;;;;;;5074182;28;19909;-42
2022/01/16 05:44:13;;;;;;;;;;;0.70;99.90;;;;;;5073850;28;20417;-41
2022/01/16 05:46:38;;;;;;;;;;;0.60;99.90;;;;;;5074079;28;20012;-42
2022/01/16 05:49:04;;;;;;;;;;;0.70;99.90;;;;;;5073717;28;20015;-41
2022/01/16 05:51:29;;;;;;;;;;;0.50;99.90;;;;;;5073767;28;19963;-41
2022/01/16 05:53:56;;;;;;;;;;;0.60;99.90;;;;;;5073363;28;20244;-42
2022/01/16 05:56:22;;;;;;;;;;;0.60;99.90;;;;;;5073727;28;20378;-42
2022/01/16 05:58:47;;;;;;;;;;;0.40;99.90;;;;;;5073867;28;19908;-42
2022/01/16 06:01:13;;;;;;;;;;;0.40;99.90;;;;;;5073666;28;19908;-42
2022/01/16 06:03:39;;;;;;;;;;;0.40;99.90;;;;;;5073984;28;19908;-42
2022/01/16 06:06:04;;;;;;;;;;;0.40;99.90;;;;;;5074204;28;19909;-42
2022/01/16 06:08:30;;;;;;;;;;;0.50;99.90;;;;;;5073669;28;19939;-41
2022/01/16 06:10:55;;;;;;;;;;;0.50;99.90;;;;;;5073860;28;19959;-42
2022/01/16 06:13:21;;;;;;;;;;;0.40;99.90;;;;;;5055735;28;19954;-42
2022/01/16 06:15:46;;;;;;;;;;;0.20;99.90;;;;;;5073884;28;19916;-42
2022/01/16 06:18:12;;;;;;;;;;;0.20;99.90;;;;;;5073777;28;19909;-43
2022/01/16 06:20:38;;;;;;;;;;;0.00;99.90;;;;;;5073788;28;19915;-42
2022/01/16 06:23:03;;;;;;;;;;;0.00;99.90;;;;;;5073484;28;19921;-42
2022/01/16 06:25:29;;;;;;;;;;;0.00;99.90;;;;;;5074061;28;20351;-42
2022/01/16 06:27:55;;;;;;;;;;;-0.20;99.90;;;;;;5073931;28;20415;-42
2022/01/16 06:30:21;;;;;;;;;;;-0.10;99.90;;;;;;5073539;28;20358;-42
2022/01/16 06:32:46;;;;;;;;;;;0.00;99.90;;;;;;5073386;28;19916;-42
2022/01/16 06:35:14;;;;;;;;;;;0.10;99.90;;;;;;5073393;28;19916;-42
2022/01/16 06:37:40;;;;;;;;;;;0.30;99.90;;;;;;5073296;28;19909;-42
2022/01/16 06:40:07;;;;;;;;;;;0.40;99.90;;;;;;5073612;28;19938;-43
2022/01/16 06:42:32;;;;;;;;;;;0.40;99.90;;;;;;5072448;28;19909;-43
2022/01/16 06:44:58;;;;;;;;;;;0.10;99.90;;;;;;5036753;28;20220;-42
2022/01/16 06:47:24;;;;;;;;;;;0.10;99.90;;;;;;5053304;28;20370;-42
2022/01/16 06:49:49;;;;;;;;;;;0.20;99.90;;;;;;5055022;28;19917;-41
2022/01/16 06:52:15;;;;;;;;;;;0.20;99.90;;;;;;5052953;28;19924;-42
2022/01/16 06:54:41;;;;;;;;;;;0.20;99.90;;;;;;5052693;28;19954;-42
2022/01/16 06:57:07;;;;;;;;;;;0.10;99.90;;;;;;5052936;28;19992;-41
2022/01/16 06:59:34;;;;;;;;;;;0.00;99.90;;;;;;5052069;28;19915;-42
2022/01/16 07:02:00;;;;;;;;;;;0.00;99.90;;;;;;5054253;28;19909;-43
2022/01/16 07:04:27;;;;;;;;;;;-0.20;99.90;;;;;;5057629;28;20481;-40
2022/01/16 07:06:53;;;;;;;;;;;-0.10;99.90;;;;;;5056294;28;19909;-41
2022/01/16 07:09:18;;;;;;;;;;;0.10;99.90;;;;;;5056588;28;19940;-42
2022/01/16 07:11:44;;;;;;;;;;;0.10;99.90;;;;;;5058108;28;20001;-43
2022/01/16 07:14:09;;;;;;;;;;;0.10;99.90;;;;;;5056862;28;19967;-42
2022/01/16 07:16:35;;;;;;;;;;;0.10;99.90;;;;;;5057261;28;19944;-45
2022/01/16 07:19:00;;;;;;;;;;;0.20;99.90;;;;;;5057602;28;20385;-42
2022/01/16 07:21:26;;;;;;;;;;;0.20;99.90;;;;;;5076470;28;19919;-42
2022/01/16 07:23:53;;;;;;;;;;;0.10;99.90;;;;;;5076704;28;19920;-42
2022/01/16 07:26:19;;;;;;;;;;;0.20;99.90;;;;;;5065308;28;19916;-42
2022/01/16 07:28:45;;;;;;;;;;;0.20;99.90;;;;;;5056624;28;19924;-43
2022/01/16 07:31:10;;;;;;;;;;;0.10;99.90;;;;;;5061439;28;19940;-42
2022/01/16 07:33:36;;;;;;;;;;;0.10;99.90;;;;;;5073715;28;19951;-42
2022/01/16 07:36:02;;;;;;;;;;;0.20;99.90;;;;;;5073105;28;19966;-42
2022/01/16 07:38:29;;;;;;;;;;;0.30;99.90;;;;;;5070158;28;19920;-42
2022/01/16 07:40:54;;;;;;;;;;;0.40;99.90;;;;;;5072297;28;19920;-43
2022/01/16 07:43:20;;;;;;;;;;;0.40;99.90;;;;;;5076304;28;19908;-42
2022/01/16 07:45:46;;;;;;;;;;;0.40;99.90;;;;;;5076455;28;19959;-42
2022/01/16 07:48:11;;;;;;;;;;;0.50;99.90;;;;;;5075819;28;19931;-42
2022/01/16 07:50:38;;;;;;;;;;;0.60;99.90;;;;;;5070618;28;19913;-43
2022/01/16 07:53:04;;;;;;;;;;;0.60;99.90;;;;;;5064777;28;19916;-43
2022/01/16 07:55:29;;;;;;;;;;;0.60;99.90;;;;;;5069676;28;19913;-43
2022/01/16 07:57:55;;;;;;;;;;;0.60;99.90;;;;;;5055945;28;19926;-42
2022/01/16 08:00:21;;;;;;;;;;;0.70;99.90;;;;;;5065690;28;19914;-41
2022/01/16 08:02:47;;;;;;;;;;;0.80;99.90;;;;;;5065749;28;20019;-42
2022/01/16 08:05:13;;;;;;;;;;;0.80;99.90;;;;;;5070403;28;19935;-41
2022/01/16 08:07:38;;;;;;;;;;;0.90;99.90;;;;;;5075519;28;20018;-42
2022/01/16 08:10:04;;;;;;;;;;;1.00;99.90;;;;;;5075368;28;19917;-42
2022/01/16 08:12:29;;;;;;;;;;;1.10;99.90;;;;;;5058155;28;20371;-42
2022/01/16 08:14:55;;;;;;;;;;;1.00;99.90;;;;;;5075662;28;19912;-43
2022/01/16 08:17:21;;;;;;;;;;;1.10;99.90;;;;;;5075146;28;20334;-42
2022/01/16 08:19:46;;;;;;;;;;;1.10;99.90;;;;;;5075376;28;19962;-42
2022/01/16 08:22:12;;;;;;;;;;;1.10;99.90;;;;;;5075535;28;19909;-44
2022/01/16 08:24:37;;;;;;;;;;;1.20;99.90;;;;;;5075507;28;20290;-46
2022/01/16 08:27:03;;;;;;;;;;;1.30;99.90;;;;;;5075259;28;19916;-47
2022/01/16 08:29:28;;;;;;;;;;;1.50;99.90;;;;;;5073068;28;20426;-45
2022/01/16 08:31:54;;;;;;;;;;;1.40;99.90;;;;;;5065395;28;20314;-45
2022/01/16 08:34:20;;;;;;;;;;;1.30;99.90;;;;;;5055269;28;19994;-44
2022/01/16 08:36:45;;;;;;;;;;;1.20;99.90;;;;;;5070201;28;19912;-45
2022/01/16 08:39:11;;;;;;;;;;;1.20;99.90;;;;;;5066121;28;20292;-43
2022/01/16 08:41:37;;;;;;;;;;;1.40;99.90;;;;;;5056473;28;19913;-44
2022/01/16 08:44:04;;;;;;;;;;;1.40;99.90;;;;;;5065665;28;20381;-47
2022/01/16 08:46:29;;;;;;;;;;;1.60;99.90;;;;;;5072254;28;19913;-45
2022/01/16 08:48:55;;;;;;;;;;;1.80;99.90;;;;;;5063744;28;19992;-45
2022/01/16 08:51:21;;;;;;;;;;;1.90;99.90;;;;;;5061960;28;19935;-46
2022/01/16 08:53:46;;;;;;;;;;;2.00;99.90;;;;;;5074766;28;20383;-46
2022/01/16 08:56:12;;;;;;;;;;;2.10;99.90;;;;;;5057252;28;19916;-45
2022/01/16 08:58:38;;;;;;;;;;;2.00;99.90;;;;;;5068252;28;19912;-47
2022/01/16 09:01:03;;;;;;;;;;;2.10;99.90;;;;;;5074230;28;19908;-44
2022/01/16 09:03:29;;;;;;;;;;;2.20;99.90;;;;;;5074510;28;19909;-44
2022/01/16 09:05:54;;;;;;;;;;;2.20;99.90;;;;;;5074223;28;19909;-44
2022/01/16 09:08:20;;;;;;;;;;;2.30;99.90;;;;;;5073555;28;20044;-44
2022/01/16 09:10:46;;;;;;;;;;;2.50;99.90;;;;;;5073558;28;19916;-40
2022/01/16 09:13:15;;;;;;;;;;;2.50;99.90;;;;;;5073254;28;19939;-39
2022/01/16 09:15:41;;;;;;;;;;;2.60;99.90;;;;;;5073382;28;19912;-41
2022/01/16 09:18:07;;;;;;;;;;;2.50;99.90;;;;;;5073671;28;20022;-43
2022/01/16 09:20:32;;;;;;;;;;;2.60;99.90;;;;;;5072084;28;19912;-41
2022/01/16 09:22:58;;;;;;;;;;;2.80;99.90;;;;;;5072411;28;19920;-41
2022/01/16 09:25:24;;;;;;;;;;;2.90;99.90;;;;;;5074303;28;19916;-41
2022/01/16 09:27:50;;;;;;;;;;;2.90;99.90;;;;;;5073783;28;19947;-42
2022/01/16 09:30:15;;;;;;;;;;;2.90;99.90;;;;;;5073801;28;19962;-41
2022/01/16 09:32:41;;;;;;;;;;;3.00;99.90;;;;;;5074511;28;20262;-42
2022/01/16 09:35:07;;;;;;;;;;;2.90;99.90;;;;;;5074150;28;20405;-42
2022/01/16 09:37:33;;;;;;;;;;;2.90;99.90;;;;;;5074538;28;19908;-42
2022/01/16 09:39:59;;;;;;;;;;;3.00;99.90;;;;;;5073905;28;20236;-42
2022/01/16 09:42:25;;;;;;;;;;;3.00;99.90;;;;;;5073953;28;19909;-42
2022/01/16 09:44:51;;;;;;;;;;;3.10;99.90;;;;;;5073652;28;19909;-42
2022/01/16 09:47:17;;;;;;;;;;;3.30;99.90;;;;;;5074278;28;19997;-42
2022/01/16 09:49:42;;;;;;;;;;;3.30;99.90;;;;;;5074220;28;20054;-42
2022/01/16 09:52:08;;;;;;;;;;;3.10;99.90;;;;;;5073634;28;19908;-41
2022/01/16 09:54:35;;;;;;;;;;;3.40;99.90;;;;;;5073884;28;20358;-42
2022/01/16 09:57:01;;;;;;;;;;;3.60;99.90;;;;;;5074188;28;19908;-42
2022/01/16 09:59:26;;;;;;;;;;;3.50;99.90;;;;;;5073851;28;20391;-43
2022/01/16 10:01:52;;;;;;;;;;;3.50;99.90;;;;;;5073812;28;19908;-43
2022/01/16 10:04:47;;;;;;;;;;;3.70;99.90;;;;;;5072944;28;20312;-43
2022/01/16 10:07:13;;;;;;;;;;;3.60;99.90;;;;;;5054853;28;20424;-43
2022/01/16 10:09:40;;;;;;;;;;;3.70;99.90;;;;;;5071466;28;19975;-42
2022/01/16 10:12:15;;;;;;;;;;;3.90;99.90;;;;;;5073010;28;19919;-45
2022/01/16 10:14:49;;;;;;;;;;;4.00;99.90;;;;;;5072643;28;19958;-42
2022/01/16 10:17:24;;;;;;;;;;;4.00;99.90;;;;;;5073346;28;20420;-41
2022/01/16 10:20:00;;;;;;;;;;;3.80;99.90;;;;;;5073475;28;19962;-42
2022/01/16 10:22:36;;;;;;;;;;;4.00;99.90;;;;;;5073307;28;19912;-42
2022/01/16 10:25:04;;;;;;;;;;;4.30;99.90;;;;;;5073445;28;19998;-43
2022/01/16 10:27:33;;;;;;;;;;;4.20;99.90;;;;;;5073160;28;19999;-42
2022/01/16 10:29:59;;;;;;;;;;;4.30;99.90;;;;;;5072168;28;19921;-41
2022/01/16 10:32:26;;;;;;;;;;;4.30;99.90;;;;;;5072856;28;19913;-47
2022/01/16 10:34:53;;;;;;;;;;;4.40;99.90;;;;;;5072100;28;19936;-42
2022/01/16 10:37:20;;;;;;;;;;;4.60;99.90;;;;;;5071854;28;19912;-43
2022/01/16 10:40:14;;;;;;;;;;;4.80;99.90;;;;;;5074222;28;19912;-42
2022/01/16 10:42:40;;;;;;;;;;;4.70;99.90;;;;;;5050006;28;19909;-43
2022/01/16 10:45:07;;;;;;;;;;;4.60;99.90;;;;;;5057015;28;19919;-46
2022/01/16 10:47:39;;;;;;;;;;;4.70;99.90;;;;;;5056904;28;19909;-43
2022/01/16 10:50:09;;;;;;;;;;;4.90;99.90;;;;;;5056637;28;19928;-45
2022/01/16 10:52:55;;;;;;;;;;;4.80;99.90;;;;;;5056834;28;19909;-45
2022/01/16 10:55:22;;;;;;;;;;;4.80;99.90;;;;;;5071931;28;19913;-42
2022/01/16 10:57:48;;;;;;;;;;;5.00;99.90;;;;;;5071676;28;20355;-40
2022/01/16 11:00:22;;;;;;;;;;;5.00;99.90;;;;;;5074091;28;19920;-47
2022/01/16 11:02:49;;;;;;;;;;;5.10;99.90;;;;;;5054966;28;19916;-46
2022/01/16 11:05:16;;;;;;;;;;;5.10;99.90;;;;;;5066928;28;19912;-43
2022/01/16 11:07:42;;;;;;;;;;;5.20;99.90;;;;;;5074844;28;19999;-40
2022/01/16 11:10:26;;;;;;;;;;;5.20;99.90;;;;;;5076383;28;20399;-41
2022/01/16 11:12:53;;;;;;;;;;;5.20;99.90;;;;;;5076385;28;19947;-50
2022/01/16 11:15:19;;;;;;;;;;;5.30;99.90;;;;;;5073096;28;19912;-46
2022/01/16 11:17:45;;;;;;;;;;;5.20;99.90;;;;;;5073394;28;19950;-45
2022/01/16 11:20:11;;;;;;;;;;;5.40;99.90;;;;;;5074785;28;20227;-44
2022/01/16 11:22:57;;;;;;;;;;;5.50;99.90;;;;;;5075848;28;20378;-48
2022/01/16 11:25:31;;;;;;;;;;;5.50;99.90;;;;;;5075725;28;20355;-44
2022/01/16 11:28:15;;;;;;;;;;;5.30;99.90;;;;;;5058345;28;20050;-45
2022/01/16 11:30:43;;;;;;;;;;;5.30;99.90;;;;;;5076269;28;20271;-43
2022/01/16 11:33:09;;;;;;;;;;;5.50;99.90;;;;;;5075581;28;20017;-43
2022/01/16 11:35:40;;;;;;;;;;;5.30;99.90;;;;;;5076281;28;20370;-44
2022/01/16 11:38:05;;;;;;;;;;;5.30;99.90;;;;;;5075635;28;19908;-47
2022/01/16 11:40:41;;;;;;;;;;;5.50;99.90;;;;;;5075977;28;19913;-42
2022/01/16 11:43:24;;;;;;;;;;;5.60;99.90;;;;;;5075906;28;19908;-44
2022/01/16 11:45:54;;;;;;;;;;;5.50;99.90;;;;;;5075764;28;19955;-44
2022/01/16 11:48:35;;;;;;;;;;;5.60;99.90;;;;;;5075625;28;19908;-45
2022/01/16 11:51:02;;;;;;;;;;;5.60;99.90;;;;;;5075247;28;20267;-46
2022/01/16 11:53:46;;;;;;;;;;;5.50;99.90;;;;;;5075766;28;20019;-45
2022/01/16 11:56:30;;;;;;;;;;;5.70;99.90;;;;;;5075474;28;20366;-48
2022/01/16 11:59:14;;;;;;;;;;;5.80;99.90;;;;;;5075540;28;19979;-44
2022/01/16 12:02:06;;;;;;;;;;;5.90;99.90;;;;;;5075288;28;19998;-45
2022/01/16 12:04:31;;;;;;;;;;;5.90;99.90;;;;;;5043931;28;19912;-44
2022/01/16 12:06:57;;;;;;;;;;;5.70;99.90;;;;;;5075424;28;19965;-45
2022/01/16 12:12:13;;;;;;;;;;;5.80;99.90;;;;;;5062095;28;19908;-45
2022/01/16 12:14:52;;;;;;;;;;;5.80;99.90;;;;;;5075348;28;20038;-47
2022/01/16 12:17:38;;;;;;;;;;;5.70;99.90;;;;;;5074946;28;19908;-44
2022/01/16 12:20:20;;;;;;;;;;;5.80;99.90;;;;;;5075244;28;19913;-49
2022/01/16 12:23:03;;;;;;;;;;;5.80;99.90;;;;;;5074765;28;19920;-44
2022/01/16 12:25:45;;;;;;;;;;;5.90;99.90;;;;;;5074981;28;19908;-47
2022/01/16 12:28:12;;;;;;;;;;;5.80;99.90;;;;;;5056148;28;20383;-46
2022/01/16 12:30:58;;;;;;;;;;;5.90;99.90;;;;;;5075072;28;20366;-43
2022/01/16 12:33:39;;;;;;;;;;;6.00;99.90;;;;;;5075274;28;19916;-43
2022/01/16 12:36:09;;;;;;;;;;;6.00;99.90;;;;;;5057388;28;19909;-45
2022/01/16 12:38:36;;;;;;;;;;;6.00;99.90;;;;;;5074589;28;19916;-44
2022/01/16 12:41:07;;;;;;;;;;;6.00;99.90;;;;;;5074411;28;19914;-46
2022/01/16 12:43:40;;;;;;;;;;;5.90;99.90;;;;;;5074401;28;19915;-43
2022/01/16 12:46:08;;;;;;;;;;;5.80;99.90;;;;;;5074795;28;19918;-44
2022/01/16 12:48:38;;;;;;;;;;;5.90;99.90;;;;;;5074621;28;19958;-44
2022/01/16 12:51:04;;;;;;;;;;;6.00;99.90;;;;;;5074279;28;19916;-45
2022/01/16 12:53:32;;;;;;;;;;;6.10;99.90;;;;;;5073740;28;19909;-46
2022/01/16 12:56:13;;;;;;;;;;;6.10;99.90;;;;;;5074256;28;19908;-48
2022/01/16 12:58:38;;;;;;;;;;;6.20;99.90;;;;;;5056437;28;19909;-44
2022/01/16 13:01:04;;;;;;;;;;;6.10;99.90;;;;;;5074501;28;19915;-45
2022/01/16 13:03:31;;;;;;;;;;;6.10;99.90;;;;;;5073856;28;19909;-45
2022/01/16 13:06:16;;;;;;;;;;;6.10;99.90;;;;;;5073841;28;19909;-47
2022/01/16 13:08:51;;;;;;;;;;;6.00;99.90;;;;;;5074005;28;19912;-48
2022/01/16 13:11:16;;;;;;;;;;;5.90;99.90;;;;;;5056214;28;19923;-45
2022/01/16 13:13:42;;;;;;;;;;;6.10;99.90;;;;;;5074169;28;19909;-43
2022/01/16 13:16:24;;;;;;;;;;;6.20;99.90;;;;;;5073738;28;20246;-44
2022/01/16 13:19:00;;;;;;;;;;;6.10;99.90;;;;;;5073739;28;20423;-47
2022/01/16 13:21:33;;;;;;;;;;;6.20;99.90;;;;;;5073920;28;20457;-45
2022/01/16 13:23:58;;;;;;;;;;;6.30;99.90;;;;;;5074046;28;20283;-46
2022/01/16 13:26:27;;;;;;;;;;;6.30;99.90;;;;;;5073936;28;19912;-44
2022/01/16 13:29:00;;;;;;;;;;;6.20;99.90;;;;;;5073788;28;19932;-46
2022/01/16 13:31:25;;;;;;;;;;;6.20;99.90;;;;;;5074159;28;19984;-47
2022/01/16 13:34:10;;;;;;;;;;;6.30;99.90;;;;;;5073465;28;19909;-44
2022/01/16 13:36:36;;;;;;;;;;;6.40;99.90;;;;;;5072462;28;19908;-45
2022/01/16 13:39:02;;;;;;;;;;;6.40;99.90;;;;;;5072888;28;19912;-47
2022/01/16 13:41:28;;;;;;;;;;;6.20;99.90;;;;;;5053557;28;19913;-45
2022/01/16 13:43:53;;;;;;;;;;;6.30;99.90;;;;;;5058726;28;19916;-48
2022/01/16 13:46:19;;;;;;;;;;;6.10;99.90;;;;;;5068868;28;20011;-46
2022/01/16 13:48:46;;;;;;;;;;;6.20;99.90;;;;;;5073567;28;20313;-43
2022/01/16 13:51:12;;;;;;;;;;;6.10;99.90;;;;;;5070312;28;20371;-44
2022/01/16 13:53:39;;;;;;;;;;;6.30;99.90;;;;;;5055380;28;19919;-44
2022/01/16 13:56:08;;;;;;;;;;;6.30;99.90;;;;;;5073677;28;20003;-45
2022/01/16 13:58:41;;;;;;;;;;;6.30;99.90;;;;;;5072647;28;19909;-43
2022/01/16 14:01:12;;;;;;;;;;;6.30;99.90;;;;;;5071401;28;19919;-46
2022/01/16 14:03:46;;;;;;;;;;;6.20;99.90;;;;;;5072426;28;19920;-45
2022/01/16 14:06:16;;;;;;;;;;;6.20;99.90;;;;;;5073397;28;19909;-46
2022/01/16 14:08:48;;;;;;;;;;;6.30;99.90;;;;;;5072025;28;19913;-45
2022/01/16 14:11:20;;;;;;;;;;;6.10;99.90;;;;;;5069943;28;19923;-46
2022/01/16 14:13:55;;;;;;;;;;;6.20;99.90;;;;;;5067718;28;19951;-45
2022/01/16 14:16:20;;;;;;;;;;;6.20;99.90;;;;;;5054676;28;20334;-45
2022/01/16 14:24:04;;;;;;;;;;;6.40;99.90;;;;;;5072413;28;20359;-44
2022/01/16 14:26:30;;;;;;;;;;;6.50;99.90;;;;;;5069888;28;19964;-44
2022/01/16 14:28:55;;;;;;;;;;;6.40;99.90;;;;;;5072822;28;19924;-43
2022/01/16 14:31:21;;;;;;;;;;;6.40;99.90;;;;;;5064961;28;20256;-45
2022/01/16 14:33:47;;;;;;;;;;;6.40;99.90;;;;;;5072124;28;19913;-48
2022/01/16 14:36:13;;;;;;;;;;;6.30;99.90;;;;;;5072644;28;19909;-46
2022/01/16 14:38:39;;;;;;;;;;;6.20;99.90;;;;;;5072875;28;19908;-45
2022/01/16 14:41:05;;;;;;;;;;;6.20;99.90;;;;;;5072649;28;19999;-48
2022/01/16 14:43:41;;;;;;;;;;;6.00;99.90;;;;;;5072697;28;19908;-48
2022/01/16 14:46:07;;;;;;;;;;;6.00;99.90;;;;;;5073089;28;20408;-48
2022/01/16 14:48:32;;;;;;;;;;;6.10;99.90;;;;;;5073011;28;19916;-44
2022/01/16 14:50:58;;;;;;;;;;;6.10;99.90;;;;;;5073363;28;19944;-44
2022/01/16 14:53:23;;;;;;;;;;;6.00;99.90;;;;;;5073113;28;19915;-44
2022/01/16 14:55:49;;;;;;;;;;;5.90;99.90;;;;;;5072932;28;20015;-44
2022/01/16 14:58:14;;;;;;;;;;;5.80;99.90;;;;;;5072902;28;19916;-43
2022/01/16 15:00:40;;;;;;;;;;;6.00;99.90;;;;;;5072949;28;19919;-44
2022/01/16 15:03:06;;;;;;;;;;;5.90;99.90;;;;;;5072817;28;19918;-45
2022/01/16 15:05:31;;;;;;;;;;;5.90;99.90;;;;;;5072824;28;19908;-44
2022/01/16 15:07:57;;;;;;;;;;;5.90;99.90;;;;;;5072697;28;19909;-46
2022/01/16 15:10:22;;;;;;;;;;;5.80;99.90;;;;;;5072735;28;19935;-44
2022/01/16 15:12:48;;;;;;;;;;;5.70;99.90;;;;;;5072756;28;19913;-43
2022/01/16 15:15:13;;;;;;;;;;;5.70;99.90;;;;;;5072494;28;19908;-45
2022/01/16 15:17:43;;;;;;;;;;;5.60;99.90;;;;;;5072695;28;20426;-46
2022/01/16 15:20:19;;;;;;;;;;;5.50;99.90;;;;;;5072930;28;19908;-45
2022/01/16 15:22:48;;;;;;;;;;;5.40;99.90;;;;;;5072552;28;19947;-45